Terminal Aerodrome Forecast
Issued by NWS

Current Version | Previous Version | Text Only | Print | Product List | Glossary On
Versions: 1 2 3 4 5 6 7 8 9 10 11 12 13 14 15 16 17 18
000
FTAK31 PANC 100538 AAA
TAFADL
TAF AMD
PADL 100538Z 1006/1106 36012KT P6SM FEW015 BKN040 OVC050
     FM100900 34010KT P6SM SCT030 BKN060
     FM101400 35006KT P6SM SCT060 BKN100=

USA.gov is the U.S. government's official web portal to all federal, state and local government web resources and services.